sensor_id;sensor_type;location;lat;lon;timestamp;P1;durP1;ratioP1;P2;durP2;ratioP2
64543;SDS011;50936;51.660;5.616;2023-07-29T00:00:46;5.50;;;3.90;;
64543;SDS011;50936;51.660;5.616;2023-07-29T00:03:13;5.95;;;3.58;;
64543;SDS011;50936;51.660;5.616;2023-07-29T00:05:40;6.70;;;3.65;;
64543;SDS011;50936;51.660;5.616;2023-07-29T00:08:07;5.03;;;3.55;;
64543;SDS011;50936;51.660;5.616;2023-07-29T00:10:38;5.95;;;3.42;;
64543;SDS011;50936;51.660;5.616;2023-07-29T00:13:05;5.32;;;3.15;;
64543;SDS011;50936;51.660;5.616;2023-07-29T00:15:33;6.15;;;3.80;;
64543;SDS011;50936;51.660;5.616;2023-07-29T00:18:00;4.30;;;3.17;;
64543;SDS011;50936;51.660;5.616;2023-07-29T00:20:27;5.32;;;3.58;;
64543;SDS011;50936;51.660;5.616;2023-07-29T00:22:54;6.50;;;3.72;;
64543;SDS011;50936;51.660;5.616;2023-07-29T00:25:21;6.28;;;3.80;;
64543;SDS011;50936;51.660;5.616;2023-07-29T00:27:48;5.40;;;3.45;;
64543;SDS011;50936;51.660;5.616;2023-07-29T00:30:16;4.57;;;3.20;;
64543;SDS011;50936;51.660;5.616;2023-07-29T00:32:42;7.15;;;3.65;;
64543;SDS011;50936;51.660;5.616;2023-07-29T00:35:12;6.45;;;3.30;;
64543;SDS011;50936;51.660;5.616;2023-07-29T00:37:39;5.30;;;3.40;;
64543;SDS011;50936;51.660;5.616;2023-07-29T00:40:12;5.85;;;3.28;;
64543;SDS011;50936;51.660;5.616;2023-07-29T00:42:47;5.93;;;3.58;;
64543;SDS011;50936;51.660;5.616;2023-07-29T00:45:15;4.93;;;3.10;;
64543;SDS011;50936;51.660;5.616;2023-07-29T00:47:43;5.35;;;3.42;;
64543;SDS011;50936;51.660;5.616;2023-07-29T00:50:11;5.28;;;3.20;;
64543;SDS011;50936;51.660;5.616;2023-07-29T00:52:40;6.57;;;3.25;;
64543;SDS011;50936;51.660;5.616;2023-07-29T00:55:07;5.82;;;3.20;;
64543;SDS011;50936;51.660;5.616;2023-07-29T00:57:35;4.90;;;3.00;;
64543;SDS011;50936;51.660;5.616;2023-07-29T01:00:03;4.53;;;3.03;;
64543;SDS011;50936;51.660;5.616;2023-07-29T01:02:31;5.20;;;3.10;;
64543;SDS011;50936;51.660;5.616;2023-07-29T01:04:59;5.65;;;3.10;;
64543;SDS011;50936;51.660;5.616;2023-07-29T01:13:05;4.70;;;3.35;;
64543;SDS011;50936;51.660;5.616;2023-07-29T01:18:26;5.25;;;3.15;;
64543;SDS011;50936;51.660;5.616;2023-07-29T01:20:58;6.22;;;3.30;;
64543;SDS011;50936;51.660;5.616;2023-07-29T01:23:34;4.65;;;2.90;;
64543;SDS011;50936;51.660;5.616;2023-07-29T01:26:02;5.32;;;3.20;;
64543;SDS011;50936;51.660;5.616;2023-07-29T01:28:30;5.00;;;2.90;;
64543;SDS011;50936;51.660;5.616;2023-07-29T01:31:02;5.43;;;3.25;;
64543;SDS011;50936;51.660;5.616;2023-07-29T01:33:45;5.22;;;3.10;;
64543;SDS011;50936;51.660;5.616;2023-07-29T01:36:26;4.93;;;3.00;;
64543;SDS011;50936;51.660;5.616;2023-07-29T01:38:57;5.93;;;3.00;;
64543;SDS011;50936;51.660;5.616;2023-07-29T01:41:25;5.28;;;3.28;;
64543;SDS011;50936;51.660;5.616;2023-07-29T01:43:55;3.70;;;2.85;;
64543;SDS011;50936;51.660;5.616;2023-07-29T01:46:23;4.60;;;3.10;;
64543;SDS011;50936;51.660;5.616;2023-07-29T01:48:50;5.28;;;2.92;;
64543;SDS011;50936;51.660;5.616;2023-07-29T01:51:17;4.32;;;2.83;;
64543;SDS011;50936;51.660;5.616;2023-07-29T01:53:44;5.78;;;3.25;;
64543;SDS011;50936;51.660;5.616;2023-07-29T01:56:11;5.63;;;2.90;;
64543;SDS011;50936;51.660;5.616;2023-07-29T01:58:48;4.95;;;2.97;;
64543;SDS011;50936;51.660;5.616;2023-07-29T02:01:14;5.22;;;2.75;;
64543;SDS011;50936;51.660;5.616;2023-07-29T02:03:42;4.90;;;2.78;;
64543;SDS011;50936;51.660;5.616;2023-07-29T02:06:09;6.07;;;2.80;;
64543;SDS011;50936;51.660;5.616;2023-07-29T02:08:36;4.75;;;3.03;;
64543;SDS011;50936;51.660;5.616;2023-07-29T02:11:03;4.32;;;2.78;;
64543;SDS011;50936;51.660;5.616;2023-07-29T02:13:31;3.85;;;2.60;;
64543;SDS011;50936;51.660;5.616;2023-07-29T02:15:58;5.30;;;3.08;;
64543;SDS011;50936;51.660;5.616;2023-07-29T02:18:25;4.45;;;2.72;;
64543;SDS011;50936;51.660;5.616;2023-07-29T02:20:52;5.25;;;3.03;;
64543;SDS011;50936;51.660;5.616;2023-07-29T02:23:19;5.35;;;2.72;;
64543;SDS011;50936;51.660;5.616;2023-07-29T02:25:46;4.25;;;2.70;;
64543;SDS011;50936;51.660;5.616;2023-07-29T02:28:13;5.47;;;3.00;;
64543;SDS011;50936;51.660;5.616;2023-07-29T02:30:40;5.82;;;3.33;;
64543;SDS011;50936;51.660;5.616;2023-07-29T02:33:10;4.85;;;2.88;;
64543;SDS011;50936;51.660;5.616;2023-07-29T02:35:37;5.10;;;2.88;;
64543;SDS011;50936;51.660;5.616;2023-07-29T02:38:04;3.95;;;2.47;;
64543;SDS011;50936;51.660;5.616;2023-07-29T02:40:31;3.78;;;2.45;;
64543;SDS011;50936;51.660;5.616;2023-07-29T02:42:58;4.68;;;2.60;;
64543;SDS011;50936;51.660;5.616;2023-07-29T02:45:25;4.13;;;2.63;;
64543;SDS011;50936;51.660;5.616;2023-07-29T02:47:52;4.68;;;2.50;;
64543;SDS011;50936;51.660;5.616;2023-07-29T02:50:20;3.38;;;2.30;;
64543;SDS011;50936;51.660;5.616;2023-07-29T02:52:47;4.30;;;2.22;;
64543;SDS011;50936;51.660;5.616;2023-07-29T02:55:17;3.80;;;2.17;;
64543;SDS011;50936;51.660;5.616;2023-07-29T02:57:44;4.38;;;2.15;;
64543;SDS011;50936;51.660;5.616;2023-07-29T03:00:11;3.90;;;2.25;;
64543;SDS011;50936;51.660;5.616;2023-07-29T03:02:39;4.47;;;2.40;;
64543;SDS011;50936;51.660;5.616;2023-07-29T03:05:06;4.25;;;2.15;;
64543;SDS011;50936;51.660;5.616;2023-07-29T03:07:34;4.32;;;2.30;;
64543;SDS011;50936;51.660;5.616;2023-07-29T03:10:01;3.22;;;2.10;;
64543;SDS011;50936;51.660;5.616;2023-07-29T03:12:28;4.03;;;2.13;;
64543;SDS011;50936;51.660;5.616;2023-07-29T03:14:55;5.25;;;2.03;;
64543;SDS011;50936;51.660;5.616;2023-07-29T03:17:22;4.20;;;2.35;;
64543;SDS011;50936;51.660;5.616;2023-07-29T03:19:49;3.60;;;2.13;;
64543;SDS011;50936;51.660;5.616;2023-07-29T03:22:18;3.60;;;2.00;;
64543;SDS011;50936;51.660;5.616;2023-07-29T03:24:45;3.85;;;2.38;;
64543;SDS011;50936;51.660;5.616;2023-07-29T03:27:12;3.60;;;1.92;;
64543;SDS011;50936;51.660;5.616;2023-07-29T03:29:39;3.10;;;2.00;;
64543;SDS011;50936;51.660;5.616;2023-07-29T03:32:06;2.60;;;2.00;;
64543;SDS011;50936;51.660;5.616;2023-07-29T03:34:33;3.60;;;2.05;;
64543;SDS011;50936;51.660;5.616;2023-07-29T03:37:00;3.67;;;2.17;;
64543;SDS011;50936;51.660;5.616;2023-07-29T03:39:27;3.42;;;2.00;;
64543;SDS011;50936;51.660;5.616;2023-07-29T03:41:54;3.17;;;1.95;;
64543;SDS011;50936;51.660;5.616;2023-07-29T03:44:21;3.60;;;2.15;;
64543;SDS011;50936;51.660;5.616;2023-07-29T03:46:48;4.22;;;2.20;;
64543;SDS011;50936;51.660;5.616;2023-07-29T03:49:15;3.00;;;2.05;;
64543;SDS011;50936;51.660;5.616;2023-07-29T03:51:42;3.63;;;1.90;;
64543;SDS011;50936;51.660;5.616;2023-07-29T03:54:09;3.55;;;2.13;;
64543;SDS011;50936;51.660;5.616;2023-07-29T03:56:37;4.35;;;2.20;;
64543;SDS011;50936;51.660;5.616;2023-07-29T03:59:05;3.38;;;2.03;;
64543;SDS011;50936;51.660;5.616;2023-07-29T04:01:33;3.85;;;2.10;;
64543;SDS011;50936;51.660;5.616;2023-07-29T04:04:00;2.95;;;1.90;;
64543;SDS011;50936;51.660;5.616;2023-07-29T04:06:27;2.67;;;1.77;;
64543;SDS011;50936;51.660;5.616;2023-07-29T04:08:55;2.70;;;1.70;;
64543;SDS011;50936;51.660;5.616;2023-07-29T04:11:22;3.33;;;1.83;;
64543;SDS011;50936;51.660;5.616;2023-07-29T04:13:50;4.00;;;1.80;;
64543;SDS011;50936;51.660;5.616;2023-07-29T04:16:17;3.53;;;1.95;;
64543;SDS011;50936;51.660;5.616;2023-07-29T04:18:44;3.03;;;1.92;;
64543;SDS011;50936;51.660;5.616;2023-07-29T04:21:11;3.15;;;2.08;;
64543;SDS011;50936;51.660;5.616;2023-07-29T04:23:38;2.67;;;1.65;;
64543;SDS011;50936;51.660;5.616;2023-07-29T04:26:06;3.40;;;1.90;;
64543;SDS011;50936;51.660;5.616;2023-07-29T04:28:33;4.38;;;2.10;;
64543;SDS011;50936;51.660;5.616;2023-07-29T04:31:00;3.35;;;1.75;;
64543;SDS011;50936;51.660;5.616;2023-07-29T04:33:29;3.67;;;2.00;;
64543;SDS011;50936;51.660;5.616;2023-07-29T04:35:59;3.90;;;1.83;;
64543;SDS011;50936;51.660;5.616;2023-07-29T04:38:32;3.30;;;1.90;;
64543;SDS011;50936;51.660;5.616;2023-07-29T04:41:00;3.30;;;1.80;;
64543;SDS011;50936;51.660;5.616;2023-07-29T04:43:30;3.10;;;1.98;;
64543;SDS011;50936;51.660;5.616;2023-07-29T04:45:58;3.10;;;1.80;;
64543;SDS011;50936;51.660;5.616;2023-07-29T04:48:26;2.90;;;1.80;;
64543;SDS011;50936;51.660;5.616;2023-07-29T04:50:53;2.80;;;1.80;;
64543;SDS011;50936;51.660;5.616;2023-07-29T04:53:20;3.65;;;1.60;;
64543;SDS011;50936;51.660;5.616;2023-07-29T04:55:47;3.58;;;2.10;;
64543;SDS011;50936;51.660;5.616;2023-07-29T04:58:14;3.33;;;1.73;;
64543;SDS011;50936;51.660;5.616;2023-07-29T05:00:42;3.47;;;1.60;;
64543;SDS011;50936;51.660;5.616;2023-07-29T05:03:09;2.75;;;1.60;;
64543;SDS011;50936;51.660;5.616;2023-07-29T05:05:36;3.58;;;1.95;;
64543;SDS011;50936;51.660;5.616;2023-07-29T05:08:03;3.47;;;1.90;;
64543;SDS011;50936;51.660;5.616;2023-07-29T05:10:30;3.60;;;1.77;;
64543;SDS011;50936;51.660;5.616;2023-07-29T05:12:57;4.20;;;2.03;;
64543;SDS011;50936;51.660;5.616;2023-07-29T05:15:24;3.08;;;1.90;;
64543;SDS011;50936;51.660;5.616;2023-07-29T05:17:51;3.38;;;1.90;;
64543;SDS011;50936;51.660;5.616;2023-07-29T05:20:18;3.78;;;1.83;;
64543;SDS011;50936;51.660;5.616;2023-07-29T05:22:45;3.63;;;2.10;;
64543;SDS011;50936;51.660;5.616;2023-07-29T05:25:12;3.65;;;1.80;;
64543;SDS011;50936;51.660;5.616;2023-07-29T05:27:39;4.88;;;1.83;;
64543;SDS011;50936;51.660;5.616;2023-07-29T05:30:07;2.83;;;1.75;;
64543;SDS011;50936;51.660;5.616;2023-07-29T05:32:35;3.38;;;1.80;;
64543;SDS011;50936;51.660;5.616;2023-07-29T05:35:02;2.70;;;1.80;;
64543;SDS011;50936;51.660;5.616;2023-07-29T05:37:30;4.38;;;2.10;;
64543;SDS011;50936;51.660;5.616;2023-07-29T05:39:58;2.45;;;1.60;;
64543;SDS011;50936;51.660;5.616;2023-07-29T05:42:25;7.90;;;1.85;;
64543;SDS011;50936;51.660;5.616;2023-07-29T05:44:52;4.18;;;1.77;;
64543;SDS011;50936;51.660;5.616;2023-07-29T05:47:19;4.07;;;1.65;;
64543;SDS011;50936;51.660;5.616;2023-07-29T05:49:46;3.50;;;1.77;;
64543;SDS011;50936;51.660;5.616;2023-07-29T05:52:13;3.00;;;1.73;;
64543;SDS011;50936;51.660;5.616;2023-07-29T05:54:41;2.92;;;1.60;;
64543;SDS011;50936;51.660;5.616;2023-07-29T05:57:09;2.78;;;1.67;;
64543;SDS011;50936;51.660;5.616;2023-07-29T05:59:38;4.35;;;1.77;;
64543;SDS011;50936;51.660;5.616;2023-07-29T06:02:05;3.10;;;1.70;;
64543;SDS011;50936;51.660;5.616;2023-07-29T06:04:33;3.83;;;1.75;;
64543;SDS011;50936;51.660;5.616;2023-07-29T06:07:00;3.80;;;1.60;;
64543;SDS011;50936;51.660;5.616;2023-07-29T06:09:27;4.20;;;1.88;;
64543;SDS011;50936;51.660;5.616;2023-07-29T06:11:54;4.07;;;1.42;;
64543;SDS011;50936;51.660;5.616;2023-07-29T06:14:21;2.85;;;1.60;;
64543;SDS011;50936;51.660;5.616;2023-07-29T06:16:48;4.43;;;2.08;;
64543;SDS011;50936;51.660;5.616;2023-07-29T06:19:15;3.88;;;1.95;;
64543;SDS011;50936;51.660;5.616;2023-07-29T06:21:42;4.18;;;1.60;;
64543;SDS011;50936;51.660;5.616;2023-07-29T06:24:09;3.20;;;1.63;;
64543;SDS011;50936;51.660;5.616;2023-07-29T06:26:36;2.83;;;1.70;;
64543;SDS011;50936;51.660;5.616;2023-07-29T06:29:04;3.08;;;1.50;;
64543;SDS011;50936;51.660;5.616;2023-07-29T06:31:31;2.60;;;1.60;;
64543;SDS011;50936;51.660;5.616;2023-07-29T06:33:59;3.63;;;1.50;;
64543;SDS011;50936;51.660;5.616;2023-07-29T06:36:26;3.67;;;1.60;;
64543;SDS011;50936;51.660;5.616;2023-07-29T06:38:53;3.17;;;1.63;;
64543;SDS011;50936;51.660;5.616;2023-07-29T06:41:20;2.75;;;1.45;;
64543;SDS011;50936;51.660;5.616;2023-07-29T06:43:48;3.53;;;1.80;;
64543;SDS011;50936;51.660;5.616;2023-07-29T06:46:15;4.85;;;1.92;;
64543;SDS011;50936;51.660;5.616;2023-07-29T06:48:42;4.32;;;1.70;;
64543;SDS011;50936;51.660;5.616;2023-07-29T06:51:09;7.25;;;2.35;;
64543;SDS011;50936;51.660;5.616;2023-07-29T06:53:36;4.15;;;1.80;;
64543;SDS011;50936;51.660;5.616;2023-07-29T06:56:03;5.65;;;2.10;;
64543;SDS011;50936;51.660;5.616;2023-07-29T06:58:31;5.20;;;1.80;;
64543;SDS011;50936;51.660;5.616;2023-07-29T07:00:58;8.25;;;2.60;;
64543;SDS011;50936;51.660;5.616;2023-07-29T07:03:25;7.85;;;3.13;;
64543;SDS011;50936;51.660;5.616;2023-07-29T07:05:52;7.88;;;2.60;;
64543;SDS011;50936;51.660;5.616;2023-07-29T07:08:19;5.10;;;2.80;;
64543;SDS011;50936;51.660;5.616;2023-07-29T07:10:49;5.82;;;2.97;;
64543;SDS011;50936;51.660;5.616;2023-07-29T07:13:16;6.35;;;3.40;;
64543;SDS011;50936;51.660;5.616;2023-07-29T07:15:43;11.88;;;3.92;;
64543;SDS011;50936;51.660;5.616;2023-07-29T07:18:09;29.73;;;8.23;;
64543;SDS011;50936;51.660;5.616;2023-07-29T07:20:36;49.15;;;11.63;;
64543;SDS011;50936;51.660;5.616;2023-07-29T07:23:04;35.17;;;10.35;;
64543;SDS011;50936;51.660;5.616;2023-07-29T07:25:31;20.08;;;6.00;;
64543;SDS011;50936;51.660;5.616;2023-07-29T07:27:58;21.98;;;6.05;;
64543;SDS011;50936;51.660;5.616;2023-07-29T07:30:25;46.00;;;11.15;;
64543;SDS011;50936;51.660;5.616;2023-07-29T07:32:52;63.60;;;13.23;;
64543;SDS011;50936;51.660;5.616;2023-07-29T07:35:19;27.50;;;7.45;;
64543;SDS011;50936;51.660;5.616;2023-07-29T07:37:46;27.98;;;6.90;;
64543;SDS011;50936;51.660;5.616;2023-07-29T07:40:13;20.17;;;6.32;;
64543;SDS011;50936;51.660;5.616;2023-07-29T07:42:40;34.33;;;8.25;;
64543;SDS011;50936;51.660;5.616;2023-07-29T07:45:07;44.97;;;8.40;;
64543;SDS011;50936;51.660;5.616;2023-07-29T07:47:34;32.92;;;8.98;;
64543;SDS011;50936;51.660;5.616;2023-07-29T07:50:01;29.08;;;6.78;;
64543;SDS011;50936;51.660;5.616;2023-07-29T07:52:29;33.17;;;6.93;;
64543;SDS011;50936;51.660;5.616;2023-07-29T07:54:56;41.90;;;11.02;;
64543;SDS011;50936;51.660;5.616;2023-07-29T07:57:22;31.67;;;8.55;;
64543;SDS011;50936;51.660;5.616;2023-07-29T07:59:49;28.10;;;6.32;;
64543;SDS011;50936;51.660;5.616;2023-07-29T08:02:18;30.20;;;7.88;;
64543;SDS011;50936;51.660;5.616;2023-07-29T08:04:47;22.48;;;7.18;;
64543;SDS011;50936;51.660;5.616;2023-07-29T08:07:13;22.98;;;6.35;;
64543;SDS011;50936;51.660;5.616;2023-07-29T08:09:40;22.00;;;5.88;;
64543;SDS011;50936;51.660;5.616;2023-07-29T08:12:07;17.42;;;4.40;;
64543;SDS011;50936;51.660;5.616;2023-07-29T08:14:34;17.67;;;5.25;;
64543;SDS011;50936;51.660;5.616;2023-07-29T08:17:01;18.73;;;5.55;;
64543;SDS011;50936;51.660;5.616;2023-07-29T08:19:30;12.35;;;4.30;;
64543;SDS011;50936;51.660;5.616;2023-07-29T08:21:57;15.65;;;4.95;;
64543;SDS011;50936;51.660;5.616;2023-07-29T08:24:35;15.36;;;4.51;;
64543;SDS011;50936;51.660;5.616;2023-07-29T08:27:02;17.27;;;4.40;;
64543;SDS011;50936;51.660;5.616;2023-07-29T08:29:29;9.20;;;3.67;;
64543;SDS011;50936;51.660;5.616;2023-07-29T08:31:55;8.88;;;2.90;;
64543;SDS011;50936;51.660;5.616;2023-07-29T08:34:22;9.95;;;3.40;;
64543;SDS011;50936;51.660;5.616;2023-07-29T08:36:49;5.88;;;2.97;;
64543;SDS011;50936;51.660;5.616;2023-07-29T08:39:16;9.05;;;3.30;;
64543;SDS011;50936;51.660;5.616;2023-07-29T08:44:42;5.93;;;3.17;;
64543;SDS011;50936;51.660;5.616;2023-07-29T08:47:10;8.05;;;2.88;;
64543;SDS011;50936;51.660;5.616;2023-07-29T08:49:40;7.05;;;3.05;;
64543;SDS011;50936;51.660;5.616;2023-07-29T08:52:08;6.05;;;2.53;;
64543;SDS011;50936;51.660;5.616;2023-07-29T08:54:36;6.90;;;2.75;;
64543;SDS011;50936;51.660;5.616;2023-07-29T08:57:04;5.32;;;2.65;;
64543;SDS011;50936;51.660;5.616;2023-07-29T08:59:32;5.82;;;2.15;;
64543;SDS011;50936;51.660;5.616;2023-07-29T09:01:59;5.07;;;2.28;;
64543;SDS011;50936;51.660;5.616;2023-07-29T09:04:26;4.95;;;2.42;;
64543;SDS011;50936;51.660;5.616;2023-07-29T09:06:55;4.90;;;2.33;;
64543;SDS011;50936;51.660;5.616;2023-07-29T09:09:25;4.47;;;2.20;;
64543;SDS011;50936;51.660;5.616;2023-07-29T09:11:52;4.07;;;2.20;;
64543;SDS011;50936;51.660;5.616;2023-07-29T09:14:20;5.45;;;2.17;;
64543;SDS011;50936;51.660;5.616;2023-07-29T09:16:46;4.80;;;2.17;;
64543;SDS011;50936;51.660;5.616;2023-07-29T09:19:14;8.13;;;2.70;;
64543;SDS011;50936;51.660;5.616;2023-07-29T09:21:41;5.25;;;2.25;;
64543;SDS011;50936;51.660;5.616;2023-07-29T09:24:09;3.97;;;2.20;;
64543;SDS011;50936;51.660;5.616;2023-07-29T09:26:37;5.90;;;2.28;;
64543;SDS011;50936;51.660;5.616;2023-07-29T09:29:05;3.88;;;1.83;;
64543;SDS011;50936;51.660;5.616;2023-07-29T09:31:32;5.78;;;2.20;;
64543;SDS011;50936;51.660;5.616;2023-07-29T09:33:59;4.20;;;2.03;;
64543;SDS011;50936;51.660;5.616;2023-07-29T09:36:30;3.78;;;2.20;;
64543;SDS011;50936;51.660;5.616;2023-07-29T09:38:59;6.43;;;2.05;;
64543;SDS011;50936;51.660;5.616;2023-07-29T09:41:27;3.97;;;2.10;;
64543;SDS011;50936;51.660;5.616;2023-07-29T09:43:59;5.80;;;2.20;;
64543;SDS011;50936;51.660;5.616;2023-07-29T09:46:34;4.75;;;2.15;;
64543;SDS011;50936;51.660;5.616;2023-07-29T09:49:05;3.88;;;2.10;;
64543;SDS011;50936;51.660;5.616;2023-07-29T09:51:37;5.40;;;2.25;;
64543;SDS011;50936;51.660;5.616;2023-07-29T09:54:06;4.93;;;2.42;;
64543;SDS011;50936;51.660;5.616;2023-07-29T09:56:33;3.75;;;1.67;;
64543;SDS011;50936;51.660;5.616;2023-07-29T09:59:05;3.35;;;1.90;;
64543;SDS011;50936;51.660;5.616;2023-07-29T10:01:33;3.30;;;1.73;;
64543;SDS011;50936;51.660;5.616;2023-07-29T10:04:03;3.28;;;1.88;;
64543;SDS011;50936;51.660;5.616;2023-07-29T10:06:34;3.50;;;1.92;;
64543;SDS011;50936;51.660;5.616;2023-07-29T10:09:02;3.88;;;1.95;;
64543;SDS011;50936;51.660;5.616;2023-07-29T10:11:30;3.83;;;1.67;;
64543;SDS011;50936;51.660;5.616;2023-07-29T10:14:00;3.72;;;1.80;;
64543;SDS011;50936;51.660;5.616;2023-07-29T10:16:37;3.20;;;1.80;;
64543;SDS011;50936;51.660;5.616;2023-07-29T10:19:08;5.30;;;2.17;;
64543;SDS011;50936;51.660;5.616;2023-07-29T10:21:37;3.35;;;1.73;;
64543;SDS011;50936;51.660;5.616;2023-07-29T10:24:09;4.03;;;1.92;;
64543;SDS011;50936;51.660;5.616;2023-07-29T10:26:43;3.72;;;1.70;;
64543;SDS011;50936;51.660;5.616;2023-07-29T10:29:18;3.65;;;1.70;;
64543;SDS011;50936;51.660;5.616;2023-07-29T10:31:50;3.15;;;1.70;;
64543;SDS011;50936;51.660;5.616;2023-07-29T10:34:22;3.25;;;1.60;;
64543;SDS011;50936;51.660;5.616;2023-07-29T10:36:51;2.95;;;1.73;;
64543;SDS011;50936;51.660;5.616;2023-07-29T10:39:19;3.35;;;1.65;;
64543;SDS011;50936;51.660;5.616;2023-07-29T10:41:57;3.47;;;1.65;;
64543;SDS011;50936;51.660;5.616;2023-07-29T10:47:14;3.03;;;1.65;;
64543;SDS011;50936;51.660;5.616;2023-07-29T10:49:43;3.05;;;1.70;;
64543;SDS011;50936;51.660;5.616;2023-07-29T10:52:15;2.58;;;1.50;;
64543;SDS011;50936;51.660;5.616;2023-07-29T10:54:54;4.25;;;1.80;;
64543;SDS011;50936;51.660;5.616;2023-07-29T10:57:35;2.92;;;1.65;;
64543;SDS011;50936;51.660;5.616;2023-07-29T11:00:07;2.70;;;1.63;;
64543;SDS011;50936;51.660;5.616;2023-07-29T11:02:35;2.50;;;1.65;;
64543;SDS011;50936;51.660;5.616;2023-07-29T11:05:05;3.35;;;1.48;;
64543;SDS011;50936;51.660;5.616;2023-07-29T11:07:48;3.08;;;1.73;;
64543;SDS011;50936;51.660;5.616;2023-07-29T11:10:15;2.50;;;1.55;;
64543;SDS011;50936;51.660;5.616;2023-07-29T11:17:46;4.05;;;1.60;;
64543;SDS011;50936;51.660;5.616;2023-07-29T11:20:31;3.15;;;1.67;;
64543;SDS011;50936;51.660;5.616;2023-07-29T11:23:01;2.88;;;1.60;;
64543;SDS011;50936;51.660;5.616;2023-07-29T11:25:30;2.97;;;1.80;;
64543;SDS011;50936;51.660;5.616;2023-07-29T11:28:00;2.70;;;1.52;;
64543;SDS011;50936;51.660;5.616;2023-07-29T11:30:31;2.42;;;1.33;;
64543;SDS011;50936;51.660;5.616;2023-07-29T11:32:58;2.67;;;1.58;;
64543;SDS011;50936;51.660;5.616;2023-07-29T11:35:27;3.83;;;1.65;;
64543;SDS011;50936;51.660;5.616;2023-07-29T11:37:54;2.53;;;1.77;;
64543;SDS011;50936;51.660;5.616;2023-07-29T11:40:25;2.85;;;1.50;;
64543;SDS011;50936;51.660;5.616;2023-07-29T11:42:52;3.53;;;1.90;;
64543;SDS011;50936;51.660;5.616;2023-07-29T11:45:21;3.53;;;1.58;;
64543;SDS011;50936;51.660;5.616;2023-07-29T11:48:01;3.17;;;1.90;;
64543;SDS011;50936;51.660;5.616;2023-07-29T11:50:29;4.30;;;1.75;;
64543;SDS011;50936;51.660;5.616;2023-07-29T11:52:56;2.40;;;1.60;;
64543;SDS011;50936;51.660;5.616;2023-07-29T11:55:22;2.72;;;1.48;;
64543;SDS011;50936;51.660;5.616;2023-07-29T11:57:51;3.53;;;1.58;;
64543;SDS011;50936;51.660;5.616;2023-07-29T12:00:19;4.03;;;1.67;;
64543;SDS011;50936;51.660;5.616;2023-07-29T12:02:47;3.13;;;1.77;;
64543;SDS011;50936;51.660;5.616;2023-07-29T12:05:16;3.47;;;1.45;;
64543;SDS011;50936;51.660;5.616;2023-07-29T12:07:45;3.50;;;1.83;;
64543;SDS011;50936;51.660;5.616;2023-07-29T12:10:12;2.97;;;1.60;;
64543;SDS011;50936;51.660;5.616;2023-07-29T12:12:47;2.60;;;1.70;;
64543;SDS011;50936;51.660;5.616;2023-07-29T12:15:23;2.80;;;1.88;;
64543;SDS011;50936;51.660;5.616;2023-07-29T12:17:56;2.40;;;1.50;;
64543;SDS011;50936;51.660;5.616;2023-07-29T12:20:25;3.50;;;1.80;;
64543;SDS011;50936;51.660;5.616;2023-07-29T12:22:55;2.30;;;1.50;;
64543;SDS011;50936;51.660;5.616;2023-07-29T12:25:27;2.80;;;1.55;;
64543;SDS011;50936;51.660;5.616;2023-07-29T12:27:55;5.25;;;2.05;;
64543;SDS011;50936;51.660;5.616;2023-07-29T12:30:22;3.47;;;1.83;;
64543;SDS011;50936;51.660;5.616;2023-07-29T12:32:51;4.57;;;2.30;;
64543;SDS011;50936;51.660;5.616;2023-07-29T12:35:18;6.68;;;2.28;;
64543;SDS011;50936;51.660;5.616;2023-07-29T12:37:45;4.85;;;2.03;;
64543;SDS011;50936;51.660;5.616;2023-07-29T12:40:22;4.90;;;2.17;;
64543;SDS011;50936;51.660;5.616;2023-07-29T12:42:51;6.05;;;1.98;;
64543;SDS011;50936;51.660;5.616;2023-07-29T12:45:18;3.55;;;1.90;;
64543;SDS011;50936;51.660;5.616;2023-07-29T12:47:45;4.60;;;1.73;;
64543;SDS011;50936;51.660;5.616;2023-07-29T12:50:12;3.65;;;2.05;;
64543;SDS011;50936;51.660;5.616;2023-07-29T12:52:39;4.28;;;1.98;;
64543;SDS011;50936;51.660;5.616;2023-07-29T12:55:06;5.32;;;1.90;;
64543;SDS011;50936;51.660;5.616;2023-07-29T12:57:35;4.88;;;2.08;;
64543;SDS011;50936;51.660;5.616;2023-07-29T13:00:03;2.95;;;1.60;;
64543;SDS011;50936;51.660;5.616;2023-07-29T13:02:31;5.53;;;1.90;;
64543;SDS011;50936;51.660;5.616;2023-07-29T13:04:58;3.47;;;2.00;;
64543;SDS011;50936;51.660;5.616;2023-07-29T13:07:25;2.75;;;1.70;;
64543;SDS011;50936;51.660;5.616;2023-07-29T13:09:52;4.97;;;1.80;;
64543;SDS011;50936;51.660;5.616;2023-07-29T13:12:19;4.00;;;1.33;;
64543;SDS011;50936;51.660;5.616;2023-07-29T13:14:47;4.03;;;1.40;;
64543;SDS011;50936;51.660;5.616;2023-07-29T13:17:13;3.83;;;1.80;;
64543;SDS011;50936;51.660;5.616;2023-07-29T13:19:40;2.95;;;1.70;;
64543;SDS011;50936;51.660;5.616;2023-07-29T13:22:07;4.90;;;1.70;;
64543;SDS011;50936;51.660;5.616;2023-07-29T13:24:34;3.33;;;1.70;;
64543;SDS011;50936;51.660;5.616;2023-07-29T13:27:01;4.25;;;2.28;;
64543;SDS011;50936;51.660;5.616;2023-07-29T13:29:28;4.38;;;2.42;;
64543;SDS011;50936;51.660;5.616;2023-07-29T13:31:55;4.78;;;2.70;;
64543;SDS011;50936;51.660;5.616;2023-07-29T13:34:22;3.95;;;2.35;;
64543;SDS011;50936;51.660;5.616;2023-07-29T13:36:49;3.83;;;2.05;;
64543;SDS011;50936;51.660;5.616;2023-07-29T13:39:16;4.47;;;2.42;;
64543;SDS011;50936;51.660;5.616;2023-07-29T13:41:43;3.80;;;1.80;;
64543;SDS011;50936;51.660;5.616;2023-07-29T13:44:10;3.35;;;1.80;;
64543;SDS011;50936;51.660;5.616;2023-07-29T13:46:37;2.50;;;1.52;;
64543;SDS011;50936;51.660;5.616;2023-07-29T13:49:04;3.60;;;1.80;;
64543;SDS011;50936;51.660;5.616;2023-07-29T13:51:31;3.10;;;1.50;;
64543;SDS011;50936;51.660;5.616;2023-07-29T13:53:58;3.15;;;1.67;;
64543;SDS011;50936;51.660;5.616;2023-07-29T13:56:25;2.67;;;1.80;;
64543;SDS011;50936;51.660;5.616;2023-07-29T13:58:52;4.07;;;1.80;;
64543;SDS011;50936;51.660;5.616;2023-07-29T14:01:19;4.82;;;1.90;;
64543;SDS011;50936;51.660;5.616;2023-07-29T14:03:46;3.03;;;1.85;;
64543;SDS011;50936;51.660;5.616;2023-07-29T14:06:13;4.00;;;1.67;;
64543;SDS011;50936;51.660;5.616;2023-07-29T14:08:40;3.97;;;1.60;;
64543;SDS011;50936;51.660;5.616;2023-07-29T14:11:08;2.47;;;1.55;;
64543;SDS011;50936;51.660;5.616;2023-07-29T14:13:35;3.85;;;1.63;;
64543;SDS011;50936;51.660;5.616;2023-07-29T14:16:02;2.17;;;1.35;;
64543;SDS011;50936;51.660;5.616;2023-07-29T14:18:30;3.50;;;1.90;;
64543;SDS011;50936;51.660;5.616;2023-07-29T14:20:57;2.97;;;1.67;;
64543;SDS011;50936;51.660;5.616;2023-07-29T14:23:24;3.00;;;1.77;;
64543;SDS011;50936;51.660;5.616;2023-07-29T14:25:51;2.17;;;1.45;;
64543;SDS011;50936;51.660;5.616;2023-07-29T14:28:18;3.65;;;1.52;;
64543;SDS011;50936;51.660;5.616;2023-07-29T14:30:45;2.47;;;1.50;;
64543;SDS011;50936;51.660;5.616;2023-07-29T14:33:12;5.38;;;1.80;;
64543;SDS011;50936;51.660;5.616;2023-07-29T14:35:41;3.72;;;1.80;;
64543;SDS011;50936;51.660;5.616;2023-07-29T14:38:08;2.85;;;1.70;;
64543;SDS011;50936;51.660;5.616;2023-07-29T14:40:35;5.53;;;1.60;;
64543;SDS011;50936;51.660;5.616;2023-07-29T14:43:02;2.22;;;1.40;;
64543;SDS011;50936;51.660;5.616;2023-07-29T14:45:28;3.35;;;1.50;;
64543;SDS011;50936;51.660;5.616;2023-07-29T14:47:55;4.93;;;1.70;;
64543;SDS011;50936;51.660;5.616;2023-07-29T14:50:22;3.08;;;1.73;;
64543;SDS011;50936;51.660;5.616;2023-07-29T14:52:49;2.47;;;1.63;;
64543;SDS011;50936;51.660;5.616;2023-07-29T14:55:16;2.53;;;1.70;;
64543;SDS011;50936;51.660;5.616;2023-07-29T14:57:43;2.17;;;1.60;;
64543;SDS011;50936;51.660;5.616;2023-07-29T15:00:10;2.33;;;1.40;;
64543;SDS011;50936;51.660;5.616;2023-07-29T15:02:39;4.90;;;1.90;;
64543;SDS011;50936;51.660;5.616;2023-07-29T15:05:08;5.32;;;1.45;;
64543;SDS011;50936;51.660;5.616;2023-07-29T15:07:35;2.58;;;1.42;;
64543;SDS011;50936;51.660;5.616;2023-07-29T15:10:02;3.25;;;1.60;;